Time;durP1;ratioP1;P1;durP2;ratioP2;P2;SDS_P1;SDS_P2;PMS_P1;PMS_P2;Temp;Humidity;BMP_temperature;BMP_pressure;BME280_temperature;BME280_humidity;BME280_pressure;Samples;Min_cycle;Max_cycle;Signal;HPM_P1;HPM_P2
2022/08/08 05:34:34;;;;;;;6.72;2.85;;;;;;;16.51;64.87;101277.34;5074874;27;20409;-40
2022/08/08 05:37:04;;;;;;;6.47;2.80;;;;;;;16.63;64.36;101286.84;5073656;28;20072;-41
2022/08/08 05:39:54;;;;;;;8.95;2.15;;;;;;;16.77;64.72;101283.25;5042480;28;20132;-39
2022/08/08 05:42:29;;;;;;;6.18;2.35;;;;;;;16.90;64.29;101284.00;5035759;28;20143;-41
2022/08/08 05:45:00;;;;;;;6.35;3.63;;;;;;;17.01;64.51;101294.34;5038539;28;20592;-40
2022/08/08 05:47:47;;;;;;;5.68;2.53;;;;;;;17.16;64.17;101286.38;5037067;28;20142;-39
2022/08/08 05:50:29;;;;;;;7.25;2.70;;;;;;;17.34;64.22;101284.47;5039151;28;20046;-40
2022/08/08 05:52:59;;;;;;;6.63;3.38;;;;;;;17.51;64.09;101286.88;5037860;28;20497;-40
2022/08/08 05:55:47;;;;;;;5.25;2.25;;;;;;;17.69;63.85;101288.41;5036849;28;20690;-42
2022/08/08 05:58:41;;;;;;;5.38;2.85;;;;;;;17.90;63.92;101294.25;5038423;28;20118;-41
2022/08/08 06:01:25;;;;;;;6.30;2.50;;;;;;;18.07;63.07;101295.78;5053187;28;20049;-40
2022/08/08 06:04:13;;;;;;;4.43;3.55;;;;;;;18.21;62.52;101299.09;5034359;28;20471;-40
2022/08/08 06:06:53;;;;;;;5.35;2.95;;;;;;;18.21;61.66;101301.72;5055163;28;20525;-41
2022/08/08 06:09:31;;;;;;;4.88;2.78;;;;;;;18.13;61.86;101300.97;5033946;28;20040;-41
2022/08/08 06:12:19;;;;;;;6.40;2.35;;;;;;;18.07;61.25;101298.41;5035114;28;20079;-42
2022/08/08 06:14:59;;;;;;;4.88;2.85;;;;;;;18.01;61.39;101301.09;5043673;28;20049;-40
2022/08/08 06:17:26;;;;;;;6.38;2.40;;;;;;;17.95;61.51;101302.94;5043405;28;20052;-42
2022/08/08 06:20:13;;;;;;;8.35;3.25;;;;;;;17.92;61.27;101313.44;5041142;28;20124;-44
2022/08/08 06:22:42;;;;;;;5.93;2.92;;;;;;;17.90;61.44;101307.34;5038533;28;20052;-41
2022/08/08 06:25:08;;;;;;;6.18;3.17;;;;;;;17.90;61.77;101309.97;5042521;28;20095;-41
2022/08/08 06:27:46;;;;;;;7.22;3.55;;;;;;;17.88;61.73;101306.53;5041979;28;21018;-44
2022/08/08 06:30:14;;;;;;;8.05;3.05;;;;;;;17.91;61.50;101314.34;5031163;28;20049;-43
2022/08/08 06:32:56;;;;;;;5.80;2.97;;;;;;;17.96;61.60;101314.25;5036871;28;20696;-41
2022/08/08 06:35:24;;;;;;;5.50;2.90;;;;;;;18.16;61.86;101316.66;5032813;28;20139;-40
2022/08/08 06:38:17;;;;;;;8.02;3.63;;;;;;;18.56;61.71;101324.81;5046390;28;20119;-40
2022/08/08 06:40:49;;;;;;;6.88;2.92;;;;;;;18.96;62.26;101334.66;5039727;28;20042;-41
2022/08/08 06:43:21;;;;;;;5.47;2.83;;;;;;;19.37;61.47;101333.97;5043308;28;20057;-40
2022/08/08 06:46:01;;;;;;;7.50;4.00;;;;;;;19.71;60.87;101338.53;5026733;28;20838;-41
2022/08/08 06:48:28;;;;;;;6.10;2.72;;;;;;;20.03;60.45;101342.28;5024555;28;20099;-43
2022/08/08 06:50:57;;;;;;;6.43;2.78;;;;;;;20.40;60.30;101342.38;5024723;28;20107;-42
2022/08/08 06:53:26;;;;;;;6.95;3.22;;;;;;;20.79;59.74;101344.06;5017933;28;20080;-41
2022/08/08 06:56:08;;;;;;;5.63;2.83;;;;;;;21.19;59.33;101339.56;5020315;28;20045;-43
2022/08/08 06:58:35;;;;;;;4.05;2.30;;;;;;;21.53;58.36;101338.66;5019076;28;20791;-43
2022/08/08 07:01:09;;;;;;;5.22;2.90;;;;;;;21.88;57.62;101335.06;5020746;28;20094;-46
2022/08/08 07:04:02;;;;;;;5.70;2.80;;;;;;;22.23;56.86;101335.75;5024713;28;20132;-44
2022/08/08 07:06:56;;;;;;;5.28;2.63;;;;;;;22.56;56.25;101338.25;5017643;28;20065;-41
2022/08/08 07:09:32;;;;;;;7.32;4.28;;;;;;;22.85;56.06;101341.72;5017008;28;20574;-44
2022/08/08 07:12:34;;;;;;;4.45;2.10;;;;;;;23.18;54.89;101345.88;5027373;28;20085;-42
2022/08/08 07:15:05;;;;;;;4.82;2.38;;;;;;;23.50;53.89;101350.94;5021897;28;20049;-41
2022/08/08 07:17:50;;;;;;;5.95;2.88;;;;;;;23.86;53.46;101350.50;5020117;28;20050;-42
2022/08/08 07:20:41;;;;;;;4.40;2.55;;;;;;;24.27;52.42;101351.59;5025023;28;20145;-42
2022/08/08 07:23:42;;;;;;;5.32;2.55;;;;;;;24.52;51.53;101355.94;5022804;28;20069;-41
2022/08/08 07:26:32;;;;;;;4.85;2.95;;;;;;;24.74;51.31;101349.72;5021379;28;20131;-44
2022/08/08 07:29:03;;;;;;;5.43;3.08;;;;;;;25.02;50.57;101359.19;5021710;28;20378;-43
2022/08/08 07:31:35;;;;;;;6.03;1.90;;;;;;;25.28;50.17;101365.13;5019274;28;20099;-44
2022/08/08 07:34:03;;;;;;;4.63;1.98;;;;;;;25.50;49.86;101357.09;5023299;28;20389;-45
2022/08/08 07:36:36;;;;;;;12.55;4.20;;;;;;;25.71;48.76;101361.53;5018237;28;20682;-43
2022/08/08 07:39:20;;;;;;;18.88;3.33;;;;;;;25.83;48.07;101365.41;5024858;28;20046;-46
2022/08/08 07:41:57;;;;;;;4.70;2.03;;;;;;;25.97;47.92;101356.81;5028477;28;20077;-43
2022/08/08 07:44:30;;;;;;;5.72;2.10;;;;;;;26.18;47.45;101366.38;5021029;28;20173;-42
2022/08/08 07:47:06;;;;;;;;;;;;;;;26.42;47.54;101365.31;5029149;28;20046;-43
2022/08/08 07:49:33;;;;;;;7.20;1.77;;;;;;;26.59;47.20;101367.13;5017806;28;19921;-42
2022/08/08 07:52:02;;;;;;;3.65;1.70;;;;;;;26.79;46.06;101374.13;5034418;28;20060;-47
2022/08/08 07:54:41;;;;;;;5.53;2.22;;;;;;;27.08;45.44;101378.88;5025066;28;20262;-45
2022/08/08 08:00:09;;;;;;;7.10;1.90;;;;;;;27.70;44.66;101388.97;5014383;27;20741;-46
2022/08/08 08:02:45;;;;;;;4.53;1.40;;;;;;;27.88;44.36;101390.69;4997677;28;20665;-46
2022/08/08 08:05:19;;;;;;;3.28;2.28;;;;;;;28.10;43.90;101387.72;4991862;28;20498;-42
2022/08/08 08:07:48;;;;;;;3.03;2.70;;;;;;;28.25;43.50;101391.31;4991813;28;20102;-43
2022/08/08 08:10:19;;;;;;;2.88;2.30;;;;;;;28.43;42.83;101386.78;5002601;28;20873;-45
2022/08/08 08:13:20;;;;;;;3.97;3.13;;;;;;;28.68;41.82;101390.69;5005065;28;20054;-46
2022/08/08 08:16:11;;;;;;;3.90;2.47;;;;;;;28.77;42.20;101388.44;4988718;28;20144;-43
2022/08/08 08:18:51;;;;;;;3.75;2.22;;;;;;;28.84;41.78;101400.47;4996994;28;20054;-45
2022/08/08 08:21:25;;;;;;;3.95;2.55;;;;;;;28.98;42.27;101397.84;4992648;28;20187;-45
2022/08/08 08:24:13;;;;;;;4.78;2.58;;;;;;;29.19;41.67;101399.31;4995624;28;20468;-43
2022/08/08 08:26:41;;;;;;;4.88;2.75;;;;;;;29.42;41.02;101400.59;4988953;28;20158;-42
2022/08/08 08:29:18;;;;;;;3.60;2.65;;;;;;;29.61;39.74;101399.47;4994692;28;20049;-46
2022/08/08 08:31:46;;;;;;;3.28;2.35;;;;;;;29.75;39.90;101412.81;4992091;28;20065;-42
2022/08/08 08:34:23;;;;;;;4.63;2.88;;;;;;;29.93;40.34;101404.59;4991250;28;20074;-44
2022/08/08 08:36:58;;;;;;;2.50;2.08;;;;;;;30.04;39.11;101400.34;4993824;28;20060;-45
2022/08/08 08:39:25;;;;;;;6.95;2.70;;;;;;;30.18;38.33;101391.47;4992068;28;20058;-45
2022/08/08 08:42:13;;;;;;;4.88;3.70;;;;;;;30.41;39.02;101392.66;4989627;28;20053;-44
2022/08/08 08:45:03;;;;;;;3.22;2.05;;;;;;;30.62;38.70;101394.84;4989440;28;20168;-46
2022/08/08 08:47:49;;;;;;;5.07;2.58;;;;;;;30.78;38.39;101392.91;4993346;28;20157;-43
2022/08/08 08:50:22;;;;;;;4.38;2.10;;;;;;;30.82;37.56;101390.00;4992307;28;20064;-48
2022/08/08 08:53:04;;;;;;;3.28;2.40;;;;;;;30.92;38.29;101391.09;4993382;28;20775;-45
2022/08/08 08:55:53;;;;;;;3.33;3.00;;;;;;;31.07;38.07;101391.84;4994574;28;20161;-45
2022/08/08 08:58:41;;;;;;;4.93;2.80;;;;;;;31.22;37.36;101389.94;4993853;28;20054;-45
2022/08/08 09:01:14;;;;;;;4.18;3.40;;;;;;;31.32;37.56;101391.97;4994624;28;20108;-44
2022/08/08 09:03:43;;;;;;;3.78;2.80;;;;;;;31.43;37.12;101389.44;4991189;28;20050;-44
2022/08/08 09:06:20;;;;;;;4.85;3.00;;;;;;;31.63;36.92;101381.78;4990360;28;20069;-46
2022/08/08 09:09:07;;;;;;;4.68;2.33;;;;;;;31.89;37.04;101379.06;5005087;28;20050;-51
2022/08/08 09:11:53;;;;;;;3.88;2.47;;;;;;;32.14;36.25;101374.59;4982496;28;20061;-46
2022/08/08 09:14:27;;;;;;;;;;;;;;;32.29;35.99;101380.66;4979931;28;20049;-45
2022/08/08 09:16:54;;;;;;;4.55;2.75;;;;;;;32.24;36.16;101381.00;4984450;28;19968;-44
2022/08/08 09:19:21;;;;;;;4.47;1.60;;;;;;;32.25;35.24;101380.03;4981972;28;21713;-43
2022/08/08 09:22:08;;;;;;;5.47;3.05;;;;;;;32.18;35.42;101378.75;4981764;28;20112;-46
2022/08/08 09:24:37;;;;;;;4.53;2.75;;;;;;;32.20;35.32;101376.84;4979709;28;20097;-43
2022/08/08 09:27:07;;;;;;;4.13;2.80;;;;;;;32.32;35.54;101375.91;4980185;28;20115;-47
2022/08/08 09:35:12;;;;;;;3.65;2.30;;;;;;;32.60;34.49;101377.50;5019254;27;20403;-45
2022/08/08 09:40:23;;;;;;;3.15;2.85;;;;;;;32.42;34.27;101369.88;5035658;28;20875;-45
2022/08/08 09:43:29;;;;;;;4.10;2.42;;;;;;;32.49;34.24;101365.81;4988280;28;20046;-45
2022/08/08 09:46:19;;;;;;;3.38;2.78;;;;;;;32.60;34.26;101372.16;5008719;28;20081;-44
2022/08/08 09:48:57;;;;;;;3.13;2.83;;;;;;;32.63;34.47;101366.56;4999578;28;20106;-46
2022/08/08 09:51:50;;;;;;;3.13;2.70;;;;;;;32.72;34.10;101360.47;4990500;28;20173;-45
2022/08/08 09:54:42;;;;;;;4.10;2.50;;;;;;;32.87;34.04;101362.97;4994294;28;20060;-44
2022/08/08 09:57:14;;;;;;;4.97;2.33;;;;;;;32.95;34.28;101357.84;4991742;28;20137;-46
2022/08/08 09:59:55;;;;;;;3.67;2.83;;;;;;;33.04;33.67;101349.13;4990130;28;20391;-45
2022/08/08 10:02:47;;;;;;;4.95;2.40;;;;;;;33.04;33.26;101348.28;4996496;28;20141;-45
2022/08/08 10:05:20;;;;;;;3.13;2.55;;;;;;;32.99;33.73;101342.38;5022541;28;20050;-45
2022/08/08 10:13:23;;;;;;;3.42;2.38;;;;;;;33.24;33.52;101338.66;5047543;28;20400;-43
2022/08/08 10:16:00;;;;;;;2.22;1.55;;;;;;;33.31;33.03;101345.25;5010887;28;20113;-46
2022/08/08 10:18:32;;;;;;;4.22;1.60;;;;;;;33.31;32.86;101334.50;5009255;28;20507;-45
2022/08/08 10:21:10;;;;;;;2.50;1.83;;;;;;;33.39;33.73;101341.09;4990046;28;20522;-47
2022/08/08 10:23:58;;;;;;;2.63;1.70;;;;;;;33.64;32.76;101341.81;4991758;28;20105;-43
2022/08/08 10:29:07;;;;;;;3.25;1.20;;;;;;;33.66;31.93;101342.53;5052600;27;20413;-46
2022/08/08 10:34:28;;;;;;;1.25;0.93;;;;;;;33.73;32.41;101349.09;5002923;28;20054;-48
2022/08/08 10:36:58;;;;;;;3.00;1.17;;;;;;;33.96;32.63;101349.94;5007061;28;20097;-46
2022/08/08 10:39:42;;;;;;;2.72;2.53;;;;;;;33.89;31.80;101337.09;5003290;28;20570;-45
2022/08/08 10:42:23;;;;;;;3.28;1.23;;;;;;;33.85;32.21;101337.38;5022206;28;20054;-49
2022/08/08 10:45:01;;;;;;;2.45;1.25;;;;;;;33.73;31.00;101338.38;5035861;28;20107;-44
2022/08/08 10:47:34;;;;;;;2.40;0.93;;;;;;;33.24;31.89;101333.28;5009263;28;20045;-44
2022/08/08 10:50:09;;;;;;;1.95;1.25;;;;;;;33.00;32.85;101331.53;5017582;28;20046;-50
2022/08/08 10:52:41;;;;;;;2.75;1.23;;;;;;;33.05;32.51;101324.00;5006102;28;20042;-43
2022/08/08 10:57:48;;;;;;;2.47;1.55;;;;;;;33.51;32.14;101318.63;5060489;28;20390;-43
2022/08/08 11:00:22;;;;;;;3.50;1.73;;;;;;;33.66;32.35;101326.41;5027190;28;20049;-45
2022/08/08 11:02:52;;;;;;;2.38;1.30;;;;;;;33.73;31.73;101327.63;5028191;28;20065;-44
2022/08/08 11:05:19;;;;;;;3.20;1.52;;;;;;;33.67;31.76;101314.72;5066011;28;20115;-46
2022/08/08 11:07:51;;;;;;;1.23;0.73;;;;;;;33.55;31.45;101317.38;5032273;28;20433;-45
2022/08/08 11:10:38;;;;;;;4.85;1.92;;;;;;;33.36;31.65;101319.84;5051863;28;20049;-47
2022/08/08 11:13:06;;;;;;;4.68;1.25;;;;;;;33.20;31.55;101315.72;5022003;28;20073;-44
2022/08/08 11:15:55;;;;;;;2.53;1.33;;;;;;;32.94;31.66;101319.47;5032245;28;20119;-43
2022/08/08 11:18:35;;;;;;;4.35;1.13;;;;;;;32.77;31.86;101315.41;5021511;28;20077;-45
2022/08/08 11:21:05;;;;;;;4.00;1.50;;;;;;;32.66;32.76;101323.44;5024879;28;20686;-47
2022/08/08 11:23:40;;;;;;;1.85;0.80;;;;;;;32.59;32.52;101317.69;4996349;28;20932;-46
2022/08/08 11:26:09;;;;;;;2.08;1.30;;;;;;;32.65;33.00;101316.38;5020213;28;20052;-44
2022/08/08 11:28:37;;;;;;;2.55;1.38;;;;;;;32.76;32.66;101319.03;5022546;28;20049;-45
2022/08/08 11:31:05;;;;;;;2.05;1.42;;;;;;;32.90;33.29;101322.50;5022703;28;20495;-45
2022/08/08 11:33:37;;;;;;;4.50;1.30;;;;;;;32.90;32.48;101326.03;5021229;28;20045;-43
2022/08/08 11:36:24;;;;;;;1.50;1.10;;;;;;;32.72;33.10;101328.31;5030545;28;20099;-44
2022/08/08 11:38:55;;;;;;;2.85;1.05;;;;;;;32.61;32.63;101321.09;5022012;28;20042;-43
2022/08/08 11:41:23;;;;;;;2.47;1.10;;;;;;;32.54;31.78;101322.53;5030230;28;20068;-42
2022/08/08 11:43:59;;;;;;;1.92;1.20;;;;;;;32.37;32.44;101313.06;5016854;28;20068;-46
2022/08/08 11:46:27;;;;;;;1.35;1.00;;;;;;;32.12;32.15;101312.25;5022770;28;20509;-45
2022/08/08 11:49:00;;;;;;;2.22;1.13;;;;;;;31.91;33.26;101316.41;5018799;28;20073;-43
2022/08/08 11:51:31;;;;;;;1.98;1.40;;;;;;;31.96;33.30;101312.53;5017583;28;20065;-43
2022/08/08 11:54:07;;;;;;;1.67;1.00;;;;;;;32.05;33.33;101310.03;5015664;28;20049;-42
2022/08/08 11:56:52;;;;;;;2.15;1.40;;;;;;;32.18;33.13;101309.09;5021371;28;20061;-43
2022/08/08 11:59:31;;;;;;;3.20;1.25;;;;;;;32.29;32.86;101309.13;5029212;28;20051;-46
2022/08/08 12:02:18;;;;;;;2.83;1.55;;;;;;;32.31;32.92;101293.81;5020416;28;20108;-43
2022/08/08 12:05:08;;;;;;;1.80;1.10;;;;;;;32.32;32.46;101303.53;5023103;28;20132;-44
2022/08/08 12:07:50;;;;;;;2.47;1.48;;;;;;;32.43;33.12;101296.53;5027380;28;20076;-45
2022/08/08 12:10:20;;;;;;;3.55;1.48;;;;;;;32.66;33.18;101280.53;5005973;28;20070;-45
2022/08/08 12:12:48;;;;;;;3.10;1.50;;;;;;;32.79;33.18;101286.63;5022055;28;20046;-43
2022/08/08 12:15:38;;;;;;;2.80;1.20;;;;;;;32.78;33.05;101282.25;5002719;28;20055;-46
2022/08/08 12:20:51;;;;;;;2.20;2.00;;;;;;;33.04;32.09;101279.38;5039897;27;20397;-46
2022/08/08 12:26:12;;;;;;;1.60;0.90;;;;;;;32.98;32.64;101269.06;5000361;28;20433;-46
2022/08/08 12:28:55;;;;;;;2.55;0.95;;;;;;;33.11;32.43;101274.34;4977088;28;20077;-43
2022/08/08 12:31:38;;;;;;;2.75;1.27;;;;;;;32.98;31.87;101279.81;4999803;28;20046;-46
2022/08/08 12:34:33;;;;;;;1.90;0.90;;;;;;;32.93;31.63;101276.66;5002610;28;20085;-43
2022/08/08 12:37:05;;;;;;;2.03;1.38;;;;;;;32.93;32.25;101276.66;4997865;28;20042;-44
2022/08/08 12:39:34;;;;;;;1.15;0.80;;;;;;;32.97;30.99;101275.44;4995366;28;20054;-47
2022/08/08 12:42:21;;;;;;;1.85;1.10;;;;;;;32.89;31.04;101269.81;4998889;28;20113;-50
2022/08/08 12:45:09;;;;;;;1.58;1.10;;;;;;;32.69;31.07;101265.03;4994870;28;20080;-46
2022/08/08 12:48:02;;;;;;;1.92;0.93;;;;;;;32.73;30.82;101265.66;5001791;28;20144;-47
2022/08/08 12:50:48;;;;;;;2.22;1.20;;;;;;;32.53;31.07;101270.75;4984593;28;20042;-44
2022/08/08 12:53:32;;;;;;;1.20;1.10;;;;;;;32.18;31.50;101268.91;4997940;28;20051;-47
2022/08/08 12:56:07;;;;;;;2.40;1.13;;;;;;;32.27;31.92;101260.16;4994989;28;20050;-47
2022/08/08 12:58:48;;;;;;;7.60;1.40;;;;;;;32.31;32.11;101250.91;5000703;28;20046;-50
2022/08/08 13:01:15;;;;;;;2.08;0.95;;;;;;;32.31;32.16;101256.28;4997192;28;20491;-51
2022/08/08 13:03:50;;;;;;;2.10;0.90;;;;;;;32.27;31.99;101260.16;4997683;28;20721;-48
2022/08/08 13:06:18;;;;;;;4.93;1.25;;;;;;;32.15;32.21;101255.75;4994716;28;20047;-48
2022/08/08 13:08:50;;;;;;;1.88;0.90;;;;;;;32.03;31.89;101247.69;4992263;28;20069;-50
2022/08/08 13:14:04;;;;;;;2.08;1.10;;;;;;;32.19;32.80;101254.53;5016023;27;20431;-51
2022/08/08 13:16:36;;;;;;;4.18;1.60;;;;;;;32.19;32.68;101252.69;5001367;28;20049;-48
2022/08/08 13:19:06;;;;;;;2.50;1.55;;;;;;;32.22;32.37;101258.81;4982249;28;20089;-50
2022/08/08 13:21:42;;;;;;;3.70;1.30;;;;;;;32.29;31.97;101250.16;4984133;28;20038;-49
2022/08/08 13:24:29;;;;;;;4.13;1.15;;;;;;;32.27;32.70;101253.94;4979879;28;20047;-47
2022/08/08 13:27:16;;;;;;;2.00;1.02;;;;;;;32.23;32.13;101257.84;4984009;28;20854;-46
2022/08/08 13:29:56;;;;;;;1.95;1.38;;;;;;;32.20;32.07;101253.56;4989352;28;20057;-48
2022/08/08 13:32:26;;;;;;;1.17;0.95;;;;;;;32.27;32.37;101243.22;4985041;28;20398;-48
2022/08/08 13:34:56;;;;;;;1.67;1.15;;;;;;;32.32;31.84;101241.91;4977974;28;20130;-50
2022/08/08 13:37:25;;;;;;;2.92;1.10;;;;;;;32.38;32.32;101239.75;4978790;28;20141;-48
2022/08/08 13:40:13;;;;;;;1.58;1.40;;;;;;;32.39;32.23;101246.81;4981219;28;20097;-47
2022/08/08 13:42:44;;;;;;;2.00;1.05;;;;;;;32.39;32.24;101244.13;4977053;28;20066;-47
2022/08/08 13:45:11;;;;;;;1.73;1.50;;;;;;;32.29;32.23;101247.50;4980178;28;20134;-49
2022/08/08 13:47:40;;;;;;;3.50;1.55;;;;;;;32.21;32.33;101243.72;4977207;28;20050;-51
2022/08/08 13:50:21;;;;;;;1.70;1.25;;;;;;;32.03;32.17;101236.97;4985120;28;20089;-50
2022/08/08 13:53:08;;;;;;;4.53;1.08;;;;;;;31.97;32.06;101248.13;4982210;28;20152;-47
2022/08/08 13:56:00;;;;;;;2.42;0.88;;;;;;;31.89;32.40;101245.13;4984533;28;20054;-50
2022/08/08 13:58:28;;;;;;;4.22;1.30;;;;;;;31.91;32.31;101237.88;4996932;28;20113;-49
2022/08/08 14:00:55;;;;;;;2.03;1.05;;;;;;;31.84;32.09;101247.31;4984922;28;20053;-49
2022/08/08 14:03:29;;;;;;;3.25;1.40;;;;;;;31.63;32.56;101237.22;4992052;28;20125;-47
2022/08/08 14:06:16;;;;;;;2.97;1.05;;;;;;;31.44;32.59;101240.41;4986558;28;20070;-45
2022/08/08 14:09:00;;;;;;;2.15;1.00;;;;;;;31.19;33.25;101240.31;4982981;28;20050;-45
2022/08/08 14:11:47;;;;;;;2.13;1.45;;;;;;;31.11;32.64;101243.56;4980747;28;20073;-49
2022/08/08 14:14:14;;;;;;;1.80;0.82;;;;;;;31.06;32.50;101236.84;4977273;28;20386;-44
2022/08/08 14:16:48;;;;;;;2.47;1.05;;;;;;;30.95;32.94;101233.09;4982595;28;20718;-45
2022/08/08 14:19:15;;;;;;;;;;;;;;;30.62;32.98;101234.47;4982949;28;20058;-44
2022/08/08 14:22:13;;;;;;;1.70;0.95;;;;;;;30.74;33.23;101233.66;4982588;28;19949;-46
2022/08/08 14:30:08;;;;;;;4.30;0.80;;;;;;;31.06;32.58;101223.47;5040874;27;21450;-48
2022/08/08 14:35:24;;;;;;;2.15;1.13;;;;;;;31.14;32.98;101226.44;5029479;28;20402;-45
2022/08/08 14:38:06;;;;;;;2.05;1.30;;;;;;;31.25;32.65;101226.50;5018075;28;20053;-47
2022/08/08 14:40:52;;;;;;;1.10;0.80;;;;;;;31.33;31.97;101227.81;5015090;28;20139;-48
2022/08/08 14:43:26;;;;;;;7.40;1.42;;;;;;;31.28;32.69;101220.91;5015035;28;20053;-44
2022/08/08 14:46:19;;;;;;;2.95;1.05;;;;;;;31.23;32.73;101225.75;5017395;28;20108;-47
2022/08/08 14:49:01;;;;;;;2.88;1.58;;;;;;;31.16;32.38;101229.84;5015245;28;20115;-47
2022/08/08 14:51:45;;;;;;;1.92;1.00;;;;;;;31.14;32.76;101218.41;5016075;28;20046;-46
2022/08/08 14:54:18;;;;;;;1.45;0.73;;;;;;;31.12;33.34;101225.69;5012381;28;20054;-44
2022/08/08 14:56:55;;;;;;;2.42;1.17;;;;;;;31.16;32.78;101221.81;5017223;28;20053;-47
2022/08/08 14:59:22;;;;;;;1.33;0.98;;;;;;;31.10;33.19;101217.75;5018153;28;20049;-47
2022/08/08 15:02:09;;;;;;;2.80;1.17;;;;;;;31.00;32.62;101216.72;5018613;28;20069;-50
2022/08/08 15:04:41;;;;;;;1.13;0.90;;;;;;;31.10;32.98;101211.56;5018410;28;20103;-49
2022/08/08 15:07:08;;;;;;;5.68;1.13;;;;;;;31.14;32.75;101210.38;5018708;28;20096;-47
2022/08/08 15:09:50;;;;;;;2.35;0.75;;;;;;;31.20;32.95;101201.88;5019710;28;20046;-51
2022/08/08 15:12:18;;;;;;;1.67;0.95;;;;;;;31.24;33.13;101203.38;5018008;28;20077;-45
2022/08/08 15:15:00;;;;;;;4.18;0.95;;;;;;;31.29;32.82;101209.28;5017233;28;20042;-46
2022/08/08 15:17:35;;;;;;;1.40;1.20;;;;;;;31.41;32.90;101206.69;5018116;28;20132;-48
2022/08/08 15:20:03;;;;;;;1.70;1.13;;;;;;;31.51;32.39;101205.03;5017266;28;20049;-44
2022/08/08 15:22:37;;;;;;;1.77;0.82;;;;;;;31.54;32.71;101193.25;5017045;28;20045;-46
2022/08/08 15:25:05;;;;;;;3.58;0.90;;;;;;;31.43;32.18;101199.38;5018856;28;20414;-47
2022/08/08 15:27:43;;;;;;;3.05;2.05;;;;;;;31.29;32.46;101200.38;5016400;28;20045;-49
2022/08/08 15:30:30;;;;;;;1.25;1.15;;;;;;;31.15;32.44;101199.56;5015620;28;20050;-45
2022/08/08 15:32:58;;;;;;;1.88;0.98;;;;;;;31.03;32.29;101201.31;5016581;28;20049;-49
2022/08/08 15:35:25;;;;;;;1.25;1.15;;;;;;;31.00;32.51;101206.88;5015855;28;20673;-45
2022/08/08 15:37:55;;;;;;;2.88;1.58;;;;;;;30.96;32.31;101205.38;5013414;28;20469;-48
2022/08/08 15:40:22;;;;;;;1.67;0.80;;;;;;;30.86;32.53;101204.34;5011634;28;20045;-46
2022/08/08 15:42:55;;;;;;;3.47;0.90;;;;;;;30.87;32.72;101200.69;5014235;28;20494;-46
2022/08/08 15:45:24;;;;;;;1.88;1.45;;;;;;;30.94;33.25;101199.31;4998643;28;20147;-48
2022/08/08 15:47:56;;;;;;;3.30;1.17;;;;;;;31.01;32.87;101202.38;5000395;28;20096;-49
2022/08/08 15:53:32;;;;;;;1.88;0.90;;;;;;;31.10;32.87;101193.69;5014218;28;20058;-45
2022/08/08 15:56:16;;;;;;;1.67;0.93;;;;;;;31.06;32.47;101191.34;5002487;28;20045;-50
2022/08/08 15:58:46;;;;;;;2.28;1.02;;;;;;;31.06;33.03;101191.34;4999554;28;20062;-45
2022/08/08 16:01:15;;;;;;;1.67;0.98;;;;;;;31.09;32.96;101188.44;5002798;28;20089;-49
2022/08/08 16:03:43;;;;;;;1.50;1.17;;;;;;;31.09;32.79;101188.44;4999712;28;24296;-47
2022/08/08 16:06:13;;;;;;;1.45;0.80;;;;;;;31.00;33.02;101188.13;4994231;28;20462;-47
2022/08/08 16:08:54;;;;;;;1.88;1.35;;;;;;;31.05;32.67;101185.16;4985355;28;20060;-48
2022/08/08 16:11:41;;;;;;;1.45;1.35;;;;;;;31.13;32.71;101184.56;5002035;28;20480;-49
2022/08/08 16:14:28;;;;;;;4.63;0.93;;;;;;;31.09;32.36;101183.94;4997966;28;20101;-49
2022/08/08 16:16:59;;;;;;;1.35;0.82;;;;;;;31.09;32.54;101183.94;5002127;28;20056;-47
2022/08/08 16:19:28;;;;;;;2.95;0.90;;;;;;;31.09;32.70;101178.59;5000881;28;20133;-47
2022/08/08 16:21:56;;;;;;;2.67;1.45;;;;;;;31.10;32.81;101184.81;5008106;28;20041;-49
2022/08/08 16:24:23;;;;;;;1.80;0.85;;;;;;;31.11;32.48;101186.53;4995752;28;20046;-45
2022/08/08 16:26:50;;;;;;;2.67;0.85;;;;;;;31.08;32.54;101181.38;4979713;28;20071;-44
2022/08/08 16:29:18;;;;;;;1.05;0.88;;;;;;;31.08;32.75;101181.38;5000167;28;20112;-48
2022/08/08 16:32:04;;;;;;;1.63;0.98;;;;;;;31.08;32.46;101181.38;5004109;28;20060;-50
2022/08/08 16:34:45;;;;;;;1.98;1.25;;;;;;;31.11;32.30;101181.16;5003660;28;20141;-41
2022/08/08 16:37:12;;;;;;;1.42;1.00;;;;;;;31.11;32.21;101178.50;5001630;28;20104;-45
2022/08/08 16:39:41;;;;;;;1.23;0.85;;;;;;;31.08;32.76;101181.38;4994050;28;20054;-42
2022/08/08 16:42:28;;;;;;;1.40;1.23;;;;;;;31.02;32.47;101188.03;4989441;28;20733;-53
2022/08/08 16:44:57;;;;;;;1.92;1.08;;;;;;;30.98;32.61;101187.41;5000319;28;20061;-47
2022/08/08 16:47:26;;;;;;;2.03;1.52;;;;;;;30.96;32.88;101189.31;5000827;28;20140;-47
2022/08/08 16:50:09;;;;;;;1.90;1.05;;;;;;;30.87;32.26;101195.34;5000222;28;20132;-48
2022/08/08 16:52:41;;;;;;;1.75;1.23;;;;;;;30.82;32.79;101197.47;4999834;28;21660;-49
2022/08/08 16:55:28;;;;;;;1.55;1.45;;;;;;;30.71;32.05;101191.06;5002048;28;20617;-48
2022/08/08 16:58:17;;;;;;;3.47;1.35;;;;;;;30.70;32.18;101194.66;4999161;28;20070;-45
2022/08/08 17:00:46;;;;;;;3.80;1.48;;;;;;;30.73;32.54;101194.47;5000265;28;20074;-50
2022/08/08 17:03:17;;;;;;;2.35;0.95;;;;;;;30.75;32.71;101192.56;4997016;28;20050;-47
2022/08/08 17:05:52;;;;;;;1.65;1.40;;;;;;;30.75;32.22;101197.94;5002567;28;20052;-46
2022/08/08 17:08:19;;;;;;;3.45;1.15;;;;;;;30.73;32.50;101191.78;5006351;28;20061;-47
2022/08/08 17:10:49;;;;;;;2.88;0.77;;;;;;;30.72;31.83;101187.41;5002132;28;20050;-48
2022/08/08 17:13:35;;;;;;;1.20;0.60;;;;;;;30.70;32.46;101186.66;5001933;28;20045;-47
2022/08/08 17:16:22;;;;;;;2.03;1.55;;;;;;;30.64;32.53;101185.28;5001797;28;20137;-48
2022/08/08 17:18:50;;;;;;;1.50;1.00;;;;;;;30.63;32.08;101174.72;5000258;28;20482;-48
2022/08/08 17:21:17;;;;;;;2.20;1.25;;;;;;;30.63;32.29;101183.56;5008330;28;20046;-48
2022/08/08 17:23:47;;;;;;;3.80;1.25;;;;;;;30.67;32.12;101178.88;4999480;28;20557;-47
2022/08/08 17:26:26;;;;;;;1.48;0.75;;;;;;;30.69;32.50;101176.94;5001907;28;20135;-47
2022/08/08 17:28:56;;;;;;;1.83;0.90;;;;;;;30.69;32.18;101182.28;5000777;28;20054;-45
2022/08/08 17:31:25;;;;;;;3.85;1.38;;;;;;;30.71;32.05;101182.16;5000840;28;20104;-47
2022/08/08 17:34:13;;;;;;;2.92;1.02;;;;;;;30.69;32.02;101182.28;5002310;28;20111;-46
2022/08/08 17:37:00;;;;;;;1.73;0.95;;;;;;;30.59;32.23;101182.06;5005737;28;20053;-47
2022/08/08 17:39:30;;;;;;;2.13;1.15;;;;;;;30.55;31.74;101180.56;4996828;28;20053;-46
2022/08/08 17:42:18;;;;;;;2.28;1.50;;;;;;;30.45;31.93;101179.50;4999587;28;20120;-48
2022/08/08 17:44:45;;;;;;;1.30;0.70;;;;;;;30.35;32.41;101184.63;5002912;28;20060;-48
2022/08/08 17:47:16;;;;;;;1.70;1.40;;;;;;;30.20;32.72;101179.41;4998677;28;20065;-45
2022/08/08 17:49:54;;;;;;;3.03;1.05;;;;;;;30.06;32.49;101185.66;5000879;28;20066;-46
2022/08/08 17:52:30;;;;;;;6.50;1.10;;;;;;;30.00;33.16;101186.94;5001525;28;20077;-50
2022/08/08 17:54:59;;;;;;;3.17;1.10;;;;;;;29.93;32.71;101182.97;5001275;28;20143;-49
2022/08/08 17:57:34;;;;;;;6.93;1.42;;;;;;;29.82;33.72;101182.81;5002277;28;20460;-51
2022/08/08 18:00:05;;;;;;;1.50;1.10;;;;;;;29.75;33.31;101188.56;4999387;28;20545;-49
2022/08/08 18:02:45;;;;;;;2.65;1.17;;;;;;;29.69;32.98;101193.44;4999849;28;20046;-50
2022/08/08 18:05:32;;;;;;;2.75;1.50;;;;;;;29.60;33.67;101194.91;5001218;28;20054;-53
2022/08/08 18:08:16;;;;;;;3.80;1.33;;;;;;;29.48;33.46;101192.06;4998843;28;20050;-51
2022/08/08 18:11:06;;;;;;;3.25;1.40;;;;;;;29.39;33.65;101195.31;5002404;28;20192;-50
2022/08/08 18:13:33;;;;;;;2.80;1.42;;;;;;;29.30;33.61;101202.09;4998455;28;20158;-48
2022/08/08 18:16:07;;;;;;;1.98;1.33;;;;;;;29.21;33.25;101195.53;4993791;28;20046;-53
2022/08/08 18:18:33;;;;;;;1.27;1.00;;;;;;;29.12;34.31;101196.97;4999086;28;20801;-51
2022/08/08 18:21:08;;;;;;;1.08;0.90;;;;;;;29.07;33.46;101198.22;5002133;28;20050;-51
2022/08/08 18:23:56;;;;;;;7.93;0.80;;;;;;;28.97;33.60;101195.28;5000678;28;20638;-49
2022/08/08 18:26:24;;;;;;;2.45;1.15;;;;;;;28.92;34.25;101195.59;5001219;28;20345;-48
2022/08/08 18:28:54;;;;;;;2.45;0.82;;;;;;;28.85;34.28;101200.41;5002922;28;20219;-51